Time;durP1;ratioP1;P1;durP2;ratioP2;P2;SDS_P1;SDS_P2;PMS_P1;PMS_P2;Temp;Humidity;BMP_temperature;BMP_pressure;BME280_temperature;BME280_humidity;BME280_pressure;Samples;Min_cycle;Max_cycle;Signal;HPM_P1;HPM_P2
2022/09/23 00:02:00;;;;;;;11.60;3.40;;;19.40;99.90;;;;;;5032115;28;20030;-72
2022/09/23 00:04:28;;;;;;;4.45;2.72;;;19.30;99.90;;;;;;5030383;28;20412;-72
2022/09/23 00:06:54;;;;;;;5.50;2.90;;;19.30;99.90;;;;;;5031719;28;20034;-72
2022/09/23 00:09:20;;;;;;;6.47;2.75;;;19.30;99.90;;;;;;5031706;28;20025;-72
2022/09/23 00:11:46;;;;;;;7.32;2.78;;;19.30;99.90;;;;;;5031703;28;20520;-72
2022/09/23 00:14:12;;;;;;;9.02;2.63;;;19.20;99.90;;;;;;5031939;28;20075;-72
2022/09/23 00:16:39;;;;;;;10.75;2.90;;;19.30;99.90;;;;;;5032027;28;20103;-72
2022/09/23 00:19:05;;;;;;;6.38;2.70;;;19.20;99.90;;;;;;5030134;28;20037;-72
2022/09/23 00:21:31;;;;;;;5.15;2.70;;;19.30;99.90;;;;;;5030069;28;20068;-72
2022/09/23 00:23:58;;;;;;;8.35;2.97;;;19.20;99.90;;;;;;5031683;28;20034;-72
2022/09/23 00:26:24;;;;;;;8.68;2.85;;;19.20;99.90;;;;;;5031377;28;20095;-73
2022/09/23 00:28:50;;;;;;;7.38;2.53;;;19.20;99.90;;;;;;5031650;28;20053;-72
2022/09/23 00:31:22;;;;;;;6.15;2.50;;;19.20;99.90;;;;;;5031330;28;20021;-72
2022/09/23 00:33:56;;;;;;;12.05;2.83;;;19.20;99.90;;;;;;5030991;28;20045;-72
2022/09/23 00:36:23;;;;;;;6.68;2.70;;;19.20;99.90;;;;;;5031379;28;20056;-72
2022/09/23 00:38:50;;;;;;;11.38;2.90;;;19.20;99.90;;;;;;5030648;28;20068;-71
2022/09/23 00:41:16;;;;;;;7.70;2.67;;;19.20;99.90;;;;;;5031201;28;20021;-71
2022/09/23 00:43:55;;;;;;;5.90;2.55;;;19.10;99.90;;;;;;5031082;28;20446;-72
2022/09/23 00:46:35;;;;;;;8.10;2.58;;;19.10;99.90;;;;;;5031203;28;20095;-71
2022/09/23 00:49:17;;;;;;;8.30;2.92;;;19.10;99.90;;;;;;5031183;28;20079;-72
2022/09/23 00:51:53;;;;;;;8.27;2.53;;;19.10;99.90;;;;;;5029447;28;20030;-72
2022/09/23 00:54:21;;;;;;;8.25;2.60;;;19.00;99.90;;;;;;5031116;28;20044;-72
2022/09/23 00:56:47;;;;;;;5.60;2.80;;;19.00;99.90;;;;;;5030895;28;20359;-72
2022/09/23 00:59:14;;;;;;;7.93;2.60;;;19.00;99.90;;;;;;5030764;28;20454;-72
2022/09/23 01:01:41;;;;;;;8.05;2.67;;;18.90;99.90;;;;;;5031055;28;20057;-72
2022/09/23 01:04:07;;;;;;;8.40;2.58;;;18.90;99.90;;;;;;5030748;28;20021;-72
2022/09/23 01:06:33;;;;;;;4.93;2.28;;;18.90;99.90;;;;;;5030724;28;20429;-72
2022/09/23 01:08:59;;;;;;;8.18;2.75;;;18.80;99.90;;;;;;5030684;28;20030;-72
2022/09/23 01:11:33;;;;;;;7.67;2.90;;;18.70;99.90;;;;;;5030987;28;20056;-72
2022/09/23 01:14:14;;;;;;;5.65;2.20;;;18.60;99.90;;;;;;5030980;28;20052;-72
2022/09/23 01:16:50;;;;;;;6.28;2.90;;;18.50;99.90;;;;;;5030784;28;20028;-71
2022/09/23 01:19:38;;;;;;;9.07;3.00;;;18.40;99.90;;;;;;5030826;28;20059;-73
2022/09/23 01:22:21;;;;;;;9.50;2.50;;;18.30;99.90;;;;;;5030930;28;20025;-72
2022/09/23 01:25:10;;;;;;;7.88;2.75;;;18.30;99.90;;;;;;5031053;28;20345;-72
2022/09/23 01:27:41;;;;;;;7.53;2.88;;;18.20;99.90;;;;;;5030517;28;20021;-72
2022/09/23 01:30:15;;;;;;;6.30;2.67;;;18.20;99.90;;;;;;5030595;28;20029;-72
2022/09/23 01:32:42;;;;;;;8.05;2.70;;;18.20;99.90;;;;;;5028860;28;20045;-71
2022/09/23 01:35:23;;;;;;;12.15;3.00;;;18.20;99.90;;;;;;5030288;28;20128;-72
2022/09/23 01:38:31;;;;;;;8.77;3.25;;;18.30;99.90;;;;;;5029304;28;20070;-72
2022/09/23 01:41:15;;;;;;;5.72;2.80;;;18.20;99.90;;;;;;5018314;28;20107;-71
2022/09/23 01:44:01;;;;;;;5.93;2.35;;;18.10;99.90;;;;;;5030675;28;20045;-73
2022/09/23 01:46:45;;;;;;;8.65;2.88;;;18.20;99.90;;;;;;5030830;28;20044;-72
2022/09/23 01:49:18;;;;;;;9.07;2.75;;;18.20;99.90;;;;;;5028879;28;20099;-72
2022/09/23 01:51:57;;;;;;;7.38;2.85;;;18.20;99.90;;;;;;5033032;28;20469;-71
2022/09/23 01:54:34;;;;;;;7.03;2.65;;;18.20;99.90;;;;;;5034446;28;20033;-72
2022/09/23 01:57:06;;;;;;;11.63;2.83;;;18.20;99.90;;;;;;5034517;28;20017;-72
2022/09/23 01:59:44;;;;;;;6.30;2.83;;;18.30;99.90;;;;;;5034334;28;20033;-72
2022/09/23 02:02:21;;;;;;;5.57;2.80;;;18.30;99.90;;;;;;5034499;28;20096;-72
2022/09/23 02:05:08;;;;;;;7.07;2.53;;;18.40;99.90;;;;;;5034245;28;20064;-72
2022/09/23 02:07:58;;;;;;;5.88;2.50;;;18.40;99.90;;;;;;5034342;28;20366;-72
2022/09/23 02:10:39;;;;;;;8.65;2.40;;;18.40;99.90;;;;;;5034401;28;20025;-71
2022/09/23 02:13:14;;;;;;;11.00;3.00;;;18.50;99.90;;;;;;5033800;28;20025;-71
2022/09/23 02:15:47;;;;;;;7.25;2.50;;;18.50;99.90;;;;;;5034302;28;20036;-71
2022/09/23 02:18:19;;;;;;;6.70;2.60;;;18.40;99.90;;;;;;5033953;28;20446;-72
2022/09/23 02:20:46;;;;;;;7.60;2.80;;;18.40;99.90;;;;;;5034155;28;20025;-71
2022/09/23 02:23:18;;;;;;;7.40;2.83;;;18.30;99.90;;;;;;5033985;28;20021;-72
2022/09/23 02:25:49;;;;;;;9.23;2.72;;;18.30;99.90;;;;;;5034020;28;20060;-71
2022/09/23 02:28:49;;;;;;;7.65;3.10;;;18.30;99.90;;;;;;5033272;28;20354;-72
2022/09/23 02:31:44;;;;;;;6.13;2.92;;;18.30;99.90;;;;;;5032064;28;20074;-72
2022/09/23 02:34:23;;;;;;;6.85;3.10;;;18.40;99.90;;;;;;5033036;28;20154;-72
2022/09/23 02:36:52;;;;;;;10.27;3.10;;;18.50;99.90;;;;;;5031977;28;20115;-72
2022/09/23 02:39:22;;;;;;;6.97;2.92;;;18.60;99.90;;;;;;5031883;28;20026;-71
2022/09/23 02:42:11;;;;;;;5.28;2.75;;;18.60;99.90;;;;;;5033577;28;20064;-72
2022/09/23 02:44:37;;;;;;;8.57;3.13;;;18.80;99.90;;;;;;5031470;28;20388;-73
2022/09/23 02:47:03;;;;;;;7.28;2.70;;;18.80;99.90;;;;;;5031820;28;20315;-72
2022/09/23 02:49:31;;;;;;;6.75;2.88;;;18.70;99.90;;;;;;5031470;28;20029;-71
2022/09/23 02:52:03;;;;;;;8.27;2.55;;;18.70;99.90;;;;;;5033222;28;20034;-72
2022/09/23 02:54:34;;;;;;;7.88;2.70;;;18.70;99.90;;;;;;5032799;28;20513;-72
2022/09/23 02:57:05;;;;;;;6.72;2.88;;;18.70;99.90;;;;;;5033279;28;20025;-72
2022/09/23 02:59:33;;;;;;;5.13;2.70;;;18.70;99.90;;;;;;5032022;28;20117;-72
2022/09/23 03:02:19;;;;;;;11.65;3.15;;;18.50;99.90;;;;;;5032778;28;20033;-72
2022/09/23 03:05:04;;;;;;;6.47;2.80;;;18.30;99.90;;;;;;5033229;28;20104;-73
2022/09/23 03:07:50;;;;;;;9.10;2.92;;;18.20;99.90;;;;;;5033074;28;20068;-72
2022/09/23 03:10:27;;;;;;;5.93;2.72;;;18.30;99.90;;;;;;5029213;28;20087;-71
2022/09/23 03:13:14;;;;;;;5.60;2.63;;;18.30;99.90;;;;;;5033166;28;20102;-72
2022/09/23 03:15:58;;;;;;;7.72;3.00;;;18.10;99.90;;;;;;5033095;28;20045;-72
2022/09/23 03:18:36;;;;;;;11.68;3.05;;;18.00;99.90;;;;;;5033600;28;20034;-73
2022/09/23 03:21:10;;;;;;;7.65;3.03;;;17.80;99.90;;;;;;5033304;28;20513;-72
2022/09/23 03:23:39;;;;;;;8.52;3.22;;;17.80;99.90;;;;;;5033816;28;20029;-72
2022/09/23 03:26:22;;;;;;;7.50;2.90;;;17.80;99.90;;;;;;5032147;28;20499;-72
2022/09/23 03:28:49;;;;;;;6.63;2.90;;;17.90;99.90;;;;;;5033566;28;20053;-72
2022/09/23 03:31:16;;;;;;;;;;;17.90;99.90;;;;;;5033972;28;20096;-72
2022/09/23 03:33:53;;;;;;;11.65;3.55;;;17.90;99.90;;;;;;5033167;28;19923;-72
2022/09/23 03:39:20;;;;;;;6.32;2.55;;;17.90;99.90;;;;;;5033862;28;20064;-72
2022/09/23 03:41:49;;;;;;;9.57;3.28;;;17.80;99.90;;;;;;5033706;28;20029;-73
2022/09/23 03:44:19;;;;;;;10.00;3.25;;;17.80;99.90;;;;;;5033165;28;20074;-72
2022/09/23 03:46:49;;;;;;;8.85;3.28;;;17.70;99.90;;;;;;5033190;28;20025;-72
2022/09/23 03:49:28;;;;;;;8.57;3.00;;;17.60;99.90;;;;;;5033173;28;20025;-73
2022/09/23 03:51:55;;;;;;;9.43;3.45;;;17.60;99.90;;;;;;5033324;28;20097;-72
2022/09/23 03:54:21;;;;;;;7.53;3.25;;;17.50;99.90;;;;;;5031882;28;20062;-72
2022/09/23 03:56:47;;;;;;;5.22;2.80;;;17.60;99.90;;;;;;5032739;28;20454;-71
2022/09/23 03:59:14;;;;;;;6.60;3.10;;;17.60;99.90;;;;;;5032988;28;20056;-72
2022/09/23 04:01:42;;;;;;;8.50;3.42;;;17.60;99.90;;;;;;5032678;28;20072;-71
2022/09/23 04:04:09;;;;;;;9.65;3.15;;;17.60;99.90;;;;;;5031082;28;20022;-74
2022/09/23 04:06:35;;;;;;;7.00;3.15;;;17.60;99.90;;;;;;5032742;28;20033;-75
2022/09/23 04:09:02;;;;;;;;;;;17.70;99.90;;;;;;5032690;28;20104;-72
2022/09/23 04:11:28;;;;;;;6.22;2.80;;;17.70;99.90;;;;;;5032497;28;19949;-74
2022/09/23 04:13:55;;;;;;;6.82;2.80;;;17.60;99.90;;;;;;5031577;28;20466;-73
2022/09/23 04:16:21;;;;;;;7.18;2.97;;;17.80;99.90;;;;;;5032632;28;20547;-73
2022/09/23 04:18:48;;;;;;;9.15;3.03;;;17.80;99.90;;;;;;5032505;28;20079;-74
2022/09/23 04:21:14;;;;;;;7.22;3.10;;;17.90;99.90;;;;;;5033910;28;20029;-73
2022/09/23 04:23:41;;;;;;;8.10;3.30;;;17.90;99.90;;;;;;5033495;28;20136;-73
2022/09/23 04:26:07;;;;;;;12.35;3.00;;;18.00;99.90;;;;;;5033912;28;20029;-73
2022/09/23 04:28:33;;;;;;;7.28;2.92;;;18.00;99.90;;;;;;5033783;28;20107;-72
2022/09/23 04:31:03;;;;;;;8.85;2.80;;;18.00;99.90;;;;;;5033379;28;20185;-73
2022/09/23 04:33:30;;;;;;;8.13;3.17;;;18.00;99.90;;;;;;5033216;28;20050;-72
2022/09/23 04:35:56;;;;;;;7.65;3.15;;;18.10;99.90;;;;;;5031975;28;20433;-73
2022/09/23 04:38:22;;;;;;;7.07;3.35;;;18.10;99.90;;;;;;5033260;28;20021;-72
2022/09/23 04:40:48;;;;;;;7.68;2.90;;;18.00;99.90;;;;;;5033158;28;20493;-73
2022/09/23 04:43:15;;;;;;;5.90;3.20;;;18.00;99.90;;;;;;5033012;28;20025;-73
2022/09/23 04:45:42;;;;;;;5.97;2.85;;;18.00;99.90;;;;;;5032451;28;20031;-74
2022/09/23 04:48:09;;;;;;;5.63;2.92;;;18.00;99.90;;;;;;5033228;28;20026;-73
2022/09/23 04:50:36;;;;;;;9.55;3.20;;;18.00;99.90;;;;;;5033023;28;20076;-73
2022/09/23 04:53:03;;;;;;;5.88;3.30;;;18.00;99.90;;;;;;5031297;28;20024;-73
2022/09/23 04:55:29;;;;;;;;;;;18.10;99.90;;;;;;5033333;28;20073;-72
2022/09/23 04:57:55;;;;;;;6.85;3.20;;;18.00;99.90;;;;;;5033057;28;19909;-72
2022/09/23 05:00:25;;;;;;;5.57;3.10;;;18.00;99.90;;;;;;5033004;28;20025;-73
2022/09/23 05:02:51;;;;;;;7.32;3.30;;;18.00;99.90;;;;;;5033215;28;20030;-72
2022/09/23 05:05:20;;;;;;;7.43;3.20;;;18.00;99.90;;;;;;5032439;28;20043;-73
2022/09/23 05:07:50;;;;;;;8.57;3.22;;;18.00;99.90;;;;;;5032760;28;20036;-73
2022/09/23 05:10:16;;;;;;;5.53;3.22;;;18.00;99.90;;;;;;5032601;28;20040;-73
2022/09/23 05:12:42;;;;;;;6.72;3.08;;;18.00;99.90;;;;;;5032762;28;20163;-73
2022/09/23 05:15:09;;;;;;;9.20;3.50;;;18.10;99.90;;;;;;5032108;28;20029;-73
2022/09/23 05:17:36;;;;;;;11.57;3.47;;;18.20;99.90;;;;;;5033228;28;20048;-73
2022/09/23 05:20:03;;;;;;;7.35;3.80;;;18.20;99.90;;;;;;5032962;28;20025;-73
2022/09/23 05:22:29;;;;;;;7.40;3.42;;;18.30;99.90;;;;;;5031662;28;20104;-74
2022/09/23 05:24:55;;;;;;;12.85;3.40;;;18.30;99.90;;;;;;5033053;28;20110;-73
2022/09/23 05:27:21;;;;;;;8.65;3.17;;;18.40;99.90;;;;;;5033161;28;20091;-73
2022/09/23 05:29:48;;;;;;;7.60;3.80;;;18.40;99.90;;;;;;5031519;28;20132;-73
2022/09/23 05:32:14;;;;;;;11.68;3.80;;;18.50;99.90;;;;;;5031364;28;20312;-72
2022/09/23 05:34:40;;;;;;;11.10;3.85;;;18.60;99.90;;;;;;5031924;28;20041;-73
2022/09/23 05:37:06;;;;;;;10.52;3.60;;;18.50;99.90;;;;;;5031706;28;20483;-73
2022/09/23 05:39:32;;;;;;;9.85;3.97;;;18.50;99.90;;;;;;5031524;28;20094;-73
2022/09/23 05:41:59;;;;;;;10.15;3.75;;;18.70;99.90;;;;;;5031956;28;20080;-73
2022/09/23 05:44:25;;;;;;;10.68;3.70;;;19.60;99.90;;;;;;5031552;28;20109;-73
2022/09/23 05:46:51;;;;;;;7.50;3.10;;;21.00;99.90;;;;;;5031684;28;20018;-73
2022/09/23 05:49:17;;;;;;;9.88;3.00;;;22.80;99.90;;;;;;5031471;28;20029;-75
2022/09/23 05:51:43;;;;;;;7.55;2.35;;;24.50;99.90;;;;;;5030991;28;20092;-73
2022/09/23 05:54:10;;;;;;;6.22;2.33;;;25.50;99.90;;;;;;5030654;28;20427;-74
2022/09/23 05:56:45;;;;;;;9.32;2.30;;;26.50;99.90;;;;;;5029331;28;20022;-74
2022/09/23 05:59:11;;;;;;;5.80;2.10;;;27.80;99.90;;;;;;5030566;28;20060;-74
2022/09/23 06:01:38;;;;;;;7.70;2.10;;;29.20;99.90;;;;;;5030703;28;20248;-74
2022/09/23 06:04:06;;;;;;;6.72;2.13;;;30.30;99.90;;;;;;5030664;28;20037;-75
2022/09/23 06:06:42;;;;;;;6.82;1.95;;;31.10;99.90;;;;;;5029392;28;20497;-75
2022/09/23 06:09:15;;;;;;;;;;;31.70;99.90;;;;;;5031580;28;20026;-74
2022/09/23 06:11:41;;;;;;;7.30;1.80;;;31.90;99.90;;;;;;5030805;28;19916;-75
2022/09/23 06:14:11;;;;;;;7.57;1.70;;;32.30;99.90;;;;;;5030613;28;20113;-74
2022/09/23 06:16:37;;;;;;;7.22;1.83;;;32.60;99.90;;;;;;5030472;28;20048;-74
2022/09/23 06:19:05;;;;;;;;;;;32.50;99.90;;;;;;5031025;28;20369;-74
2022/09/23 06:21:34;;;;;;;6.07;2.15;;;32.80;99.90;;;;;;5030812;28;20345;-73
2022/09/23 06:24:01;;;;;;;4.10;1.70;;;33.20;99.90;;;;;;5030878;28;20120;-73
2022/09/23 06:26:31;;;;;;;7.20;1.60;;;33.70;99.90;;;;;;5030742;28;20103;-74
2022/09/23 06:28:57;;;;;;;8.60;2.58;;;34.40;99.90;;;;;;5030921;28;20075;-75
2022/09/23 06:31:23;;;;;;;9.75;1.80;;;34.90;99.70;;;;;;5030998;28;20033;-74
2022/09/23 06:33:49;;;;;;;7.43;2.13;;;35.30;99.00;;;;;;5030576;28;20401;-74
2022/09/23 06:36:15;;;;;;;4.47;1.63;;;35.90;97.80;;;;;;5031165;28;20110;-75
2022/09/23 06:38:48;;;;;;;4.65;1.92;;;35.90;97.70;;;;;;5034761;28;20049;-75
2022/09/23 06:41:14;;;;;;;8.48;1.55;;;36.00;97.60;;;;;;5033172;28;20070;-75
2022/09/23 06:43:40;;;;;;;4.75;1.60;;;35.70;97.40;;;;;;5034497;28;20026;-74
2022/09/23 06:46:07;;;;;;;6.05;1.80;;;35.90;97.40;;;;;;5034469;28;20029;-75
2022/09/23 06:48:36;;;;;;;7.15;1.73;;;36.30;96.80;;;;;;5034424;28;20036;-75
2022/09/23 06:51:06;;;;;;;8.52;1.77;;;36.80;96.50;;;;;;5033049;28;20033;-76
2022/09/23 06:53:32;;;;;;;5.38;1.60;;;37.00;96.20;;;;;;5034101;28;20068;-74
2022/09/23 06:55:59;;;;;;;12.50;1.90;;;37.60;95.30;;;;;;5034588;28;20104;-75
2022/09/23 06:58:25;;;;;;;8.68;1.90;;;37.80;95.00;;;;;;5034153;28;20060;-75
2022/09/23 07:00:52;;;;;;;8.98;1.67;;;37.70;94.80;;;;;;5034381;28;20026;-74
2022/09/23 07:03:21;;;;;;;8.55;1.60;;;38.40;94.40;;;;;;5033886;28;20036;-74
2022/09/23 07:05:47;;;;;;;9.50;1.48;;;38.30;93.90;;;;;;5034105;28;20025;-74
2022/09/23 07:08:13;;;;;;;4.15;1.40;;;38.00;93.40;;;;;;5034136;28;20029;-74
2022/09/23 07:10:39;;;;;;;6.50;1.48;;;38.00;93.10;;;;;;5033614;28;20044;-74
2022/09/23 07:13:05;;;;;;;3.08;1.30;;;36.90;93.50;;;;;;5034048;28;20036;-75
2022/09/23 07:15:32;;;;;;;6.30;1.52;;;36.50;94.00;;;;;;5033486;28;20488;-74
2022/09/23 07:17:58;;;;;;;6.80;1.65;;;35.90;94.70;;;;;;5032045;28;20461;-75
2022/09/23 07:20:24;;;;;;;6.25;1.63;;;35.40;94.40;;;;;;5033927;28;20033;-74
2022/09/23 07:22:51;;;;;;;5.15;1.63;;;34.10;95.20;;;;;;5033958;28;20036;-75
2022/09/23 07:25:18;;;;;;;9.20;2.20;;;33.20;96.00;;;;;;5033798;28;20031;-74
2022/09/23 07:27:46;;;;;;;7.22;2.00;;;32.00;97.50;;;;;;5034089;28;20026;-76
2022/09/23 07:30:13;;;;;;;4.95;1.77;;;30.40;98.90;;;;;;5033735;28;20082;-76
2022/09/23 07:32:39;;;;;;;5.05;1.45;;;30.20;99.60;;;;;;5032938;28;20057;-75
2022/09/23 07:35:07;;;;;;;5.75;1.70;;;30.20;99.50;;;;;;5033182;28;20067;-75
2022/09/23 07:37:33;;;;;;;5.00;1.80;;;29.70;99.70;;;;;;5033363;28;20052;-75
2022/09/23 07:39:59;;;;;;;6.00;1.50;;;29.70;99.90;;;;;;5033742;28;20025;-75
2022/09/23 07:42:25;;;;;;;4.75;1.52;;;29.30;99.80;;;;;;5033592;28;20026;-75
2022/09/23 07:44:51;;;;;;;6.45;1.67;;;28.50;99.90;;;;;;5033554;28;20311;-74
2022/09/23 07:47:17;;;;;;;4.95;1.33;;;27.80;99.90;;;;;;5033060;28;20028;-75
2022/09/23 07:49:43;;;;;;;;;;;27.40;99.90;;;;;;5032790;28;20124;-74
2022/09/23 07:52:09;;;;;;;;;;;27.20;99.90;;;;;;5033296;28;20393;-74
2022/09/23 07:54:35;;;;;;;4.50;1.63;;;26.80;99.90;;;;;;5032640;28;20337;-76
2022/09/23 07:57:01;;;;;;;7.65;1.73;;;26.30;99.90;;;;;;5032511;28;20106;-74
2022/09/23 07:59:27;;;;;;;;;;;26.00;99.90;;;;;;5033265;28;20037;-75
2022/09/23 08:01:55;;;;;;;;;;;26.00;99.90;;;;;;5033385;28;19905;-75
2022/09/23 08:04:28;;;;;;;4.93;1.58;;;26.00;99.90;;;;;;5032420;28;19916;-75
2022/09/23 08:06:58;;;;;;;4.53;1.63;;;25.80;99.90;;;;;;5032327;28;20367;-75
2022/09/23 08:09:30;;;;;;;4.68;1.40;;;25.80;99.90;;;;;;5032156;28;20025;-76
2022/09/23 08:11:57;;;;;;;5.03;1.30;;;26.00;99.90;;;;;;5032357;28;20036;-74
2022/09/23 08:14:23;;;;;;;3.90;1.20;;;26.20;99.90;;;;;;5031646;28;20044;-76
2022/09/23 08:16:50;;;;;;;5.85;1.45;;;26.50;99.90;;;;;;5030637;28;20451;-75
2022/09/23 08:19:17;;;;;;;2.70;1.50;;;26.80;99.90;;;;;;5031250;28;20029;-74
2022/09/23 08:21:46;;;;;;;4.63;1.38;;;26.90;99.90;;;;;;5032250;28;20017;-74
2022/09/23 08:24:20;;;;;;;9.48;1.63;;;26.70;99.90;;;;;;5032639;28;20454;-76
2022/09/23 08:26:47;;;;;;;3.60;1.33;;;26.50;99.90;;;;;;5032698;28;20021;-76
2022/09/23 08:29:16;;;;;;;3.22;1.27;;;26.00;99.90;;;;;;5032043;28;20112;-74
2022/09/23 08:31:42;;;;;;;5.75;1.40;;;25.50;99.90;;;;;;5031778;28;20108;-74
2022/09/23 08:34:10;;;;;;;5.03;1.40;;;25.50;99.90;;;;;;5031788;28;20064;-74
2022/09/23 08:36:36;;;;;;;5.10;1.58;;;25.20;99.90;;;;;;5030365;28;20064;-74
2022/09/23 08:39:03;;;;;;;;;;;24.90;99.90;;;;;;5032452;28;20028;-75
2022/09/23 08:41:44;;;;;;;4.78;1.60;;;24.50;99.90;;;;;;5031900;28;20349;-76
2022/09/23 08:44:32;;;;;;;4.28;1.45;;;24.30;99.90;;;;;;5032228;28;20069;-74
2022/09/23 08:47:52;;;;;;;2.85;1.38;;;24.60;99.90;;;;;;5031960;28;20072;-74
2022/09/23 08:50:20;;;;;;;6.57;1.50;;;25.10;99.90;;;;;;5009741;28;20502;-75
2022/09/23 08:53:02;;;;;;;3.70;1.55;;;25.70;99.90;;;;;;5026651;28;20029;-75
2022/09/23 08:55:33;;;;;;;4.82;1.20;;;26.20;99.90;;;;;;5031217;28;20150;-75
2022/09/23 08:58:18;;;;;;;4.22;1.23;;;26.30;99.90;;;;;;5031443;28;20025;-75
2022/09/23 09:01:08;;;;;;;3.15;1.17;;;26.50;99.90;;;;;;5030811;28;20076;-74
2022/09/23 09:03:48;;;;;;;3.05;1.50;;;26.60;99.90;;;;;;5030543;28;20038;-75
2022/09/23 09:06:43;;;;;;;3.85;1.50;;;26.30;99.90;;;;;;5031291;28;20029;-76
2022/09/23 09:09:22;;;;;;;3.83;1.60;;;26.30;99.90;;;;;;5009474;28;20030;-75
2022/09/23 09:11:53;;;;;;;5.47;1.30;;;26.30;99.90;;;;;;5009218;28;20052;-75
2022/09/23 09:14:25;;;;;;;4.35;1.23;;;26.70;99.90;;;;;;5009149;28;20526;-75
2022/09/23 09:17:00;;;;;;;6.57;1.73;;;26.20;99.90;;;;;;5009336;28;20386;-75
2022/09/23 09:19:45;;;;;;;5.47;1.40;;;26.40;99.90;;;;;;5009523;28;20034;-74
2022/09/23 09:22:35;;;;;;;4.93;1.52;;;26.10;99.90;;;;;;5009058;28;20029;-75
2022/09/23 09:25:29;;;;;;;4.57;1.20;;;25.90;99.90;;;;;;5008515;28;20073;-74
2022/09/23 09:27:56;;;;;;;4.82;1.23;;;26.00;99.90;;;;;;5008975;28;20037;-75
2022/09/23 09:30:24;;;;;;;4.55;1.33;;;25.90;98.80;;;;;;4992289;28;20026;-75
2022/09/23 09:33:16;;;;;;;2.58;1.23;;;25.80;99.90;;;;;;5008248;28;20187;-75
2022/09/23 09:36:07;;;;;;;3.25;1.40;;;25.70;99.90;;;;;;5008995;28;20054;-75
2022/09/23 09:38:35;;;;;;;2.63;1.10;;;26.00;99.90;;;;;;5009070;28;20529;-75
2022/09/23 09:41:14;;;;;;;2.78;1.27;;;26.00;99.60;;;;;;5008705;28;20026;-75
2022/09/23 09:43:47;;;;;;;4.68;1.00;;;25.80;99.10;;;;;;5009584;28;20447;-74
2022/09/23 09:46:31;;;;;;;6.00;1.40;;;25.30;99.40;;;;;;5021334;28;20030;-74
2022/09/23 09:49:21;;;;;;;3.92;1.25;;;25.00;99.90;;;;;;5030985;28;20546;-74
2022/09/23 09:52:10;;;;;;;2.72;1.40;;;25.00;99.90;;;;;;5030657;28;20037;-75
2022/09/23 09:54:36;;;;;;;6.13;1.40;;;25.30;99.90;;;;;;5031552;28;20065;-74
2022/09/23 09:57:14;;;;;;;4.35;2.00;;;25.70;99.50;;;;;;5030539;28;20049;-74
2022/09/23 09:59:42;;;;;;;3.22;1.10;;;25.70;98.80;;;;;;5030931;28;20501;-74
2022/09/23 10:02:32;;;;;;;3.45;1.25;;;25.80;98.40;;;;;;5030628;28;20446;-74
2022/09/23 10:05:02;;;;;;;3.20;1.20;;;25.50;98.80;;;;;;5030609;28;20025;-74
2022/09/23 10:07:31;;;;;;;3.60;1.15;;;25.40;98.50;;;;;;5030214;28;20033;-73
2022/09/23 10:10:00;;;;;;;5.70;1.55;;;25.20;98.40;;;;;;5029478;28;20029;-74
2022/09/23 10:12:26;;;;;;;4.20;1.58;;;25.20;99.90;;;;;;5031972;28;20091;-75
2022/09/23 10:14:56;;;;;;;7.40;1.52;;;25.40;99.90;;;;;;5031285;28;20406;-74
2022/09/23 10:17:51;;;;;;;3.95;1.50;;;25.60;99.90;;;;;;5032648;28;20072;-74
2022/09/23 10:20:18;;;;;;;5.18;1.50;;;25.80;99.90;;;;;;5030438;28;20069;-75
2022/09/23 10:22:45;;;;;;;7.55;2.65;;;25.80;99.90;;;;;;5033955;28;20100;-74
2022/09/23 10:25:25;;;;;;;5.65;2.35;;;25.90;99.90;;;;;;5033694;28;20060;-74
2022/09/23 10:27:51;;;;;;;5.75;2.20;;;25.90;99.90;;;;;;5032416;28;20025;-74
2022/09/23 10:30:25;;;;;;;3.92;1.75;;;25.90;99.90;;;;;;5034253;28;20445;-74
2022/09/23 10:32:53;;;;;;;6.90;2.00;;;26.00;99.90;;;;;;5033850;28;20264;-74
2022/09/23 10:35:22;;;;;;;7.05;1.52;;;26.10;99.90;;;;;;5033745;28;20034;-74
2022/09/23 10:37:59;;;;;;;6.80;1.60;;;26.40;99.90;;;;;;5032430;28;20140;-75
2022/09/23 10:47:21;;;;;;;3.40;1.50;;;27.10;99.90;;;;;;5033903;28;20030;-75
2022/09/23 10:49:58;;;;;;;3.83;1.63;;;27.30;99.90;;;;;;5012068;28;20026;-74
2022/09/23 10:52:51;;;;;;;4.45;1.70;;;27.50;99.90;;;;;;5012814;28;20038;-74
2022/09/23 10:55:53;;;;;;;4.47;1.48;;;27.80;99.90;;;;;;5013046;28;20113;-74
2022/09/23 10:58:38;;;;;;;4.47;1.70;;;27.70;99.90;;;;;;5012697;28;20053;-74
2022/09/23 11:01:25;;;;;;;5.07;1.60;;;28.10;99.90;;;;;;5012154;28;20037;-74
2022/09/23 11:04:08;;;;;;;5.45;1.85;;;28.10;99.90;;;;;;5010742;28;20300;-74
2022/09/23 11:06:55;;;;;;;5.78;1.60;;;27.90;99.90;;;;;;4994849;28;20029;-73
2022/09/23 11:09:42;;;;;;;4.22;1.50;;;27.70;99.90;;;;;;5011877;28;20104;-74
2022/09/23 11:12:27;;;;;;;3.85;1.50;;;27.70;99.90;;;;;;5011938;28;20151;-73
2022/09/23 11:14:59;;;;;;;3.65;1.42;;;27.60;99.90;;;;;;5011343;28;20038;-73
2022/09/23 11:18:02;;;;;;;4.25;1.50;;;27.50;99.90;;;;;;5011848;28;20112;-75
2022/09/23 11:20:46;;;;;;;3.05;1.38;;;27.50;99.90;;;;;;5012239;28;20025;-74
2022/09/23 11:23:25;;;;;;;7.60;1.23;;;27.10;99.90;;;;;;5002918;28;20363;-74
2022/09/23 11:26:12;;;;;;;4.47;1.40;;;27.00;99.90;;;;;;5032759;28;20030;-74
2022/09/23 11:29:01;;;;;;;6.95;1.17;;;27.20;99.90;;;;;;5032176;28;20033;-74
2022/09/23 11:32:13;;;;;;;3.13;1.40;;;27.40;99.90;;;;;;5033472;28;20469;-74
2022/09/23 11:35:19;;;;;;;6.18;2.55;;;27.70;99.90;;;;;;5032467;28;20398;-74
2022/09/23 11:38:11;;;;;;;3.28;1.77;;;27.90;99.90;;;;;;5033932;28;20088;-74
2022/09/23 11:40:40;;;;;;;3.80;1.40;;;27.90;99.90;;;;;;5033030;28;20048;-74
2022/09/23 11:43:14;;;;;;;4.05;1.25;;;27.90;99.90;;;;;;5033872;28;20108;-75
2022/09/23 11:45:53;;;;;;;5.63;1.30;;;28.00;99.90;;;;;;5034170;28;20482;-74
2022/09/23 11:48:33;;;;;;;3.92;1.40;;;28.10;99.90;;;;;;5034322;28;20030;-74
2022/09/23 11:51:21;;;;;;;3.03;1.23;;;28.00;99.90;;;;;;5033996;28;20028;-74
2022/09/23 11:54:00;;;;;;;2.90;1.10;;;28.10;99.90;;;;;;5032659;28;20037;-74
2022/09/23 11:56:53;;;;;;;2.92;1.10;;;28.10;99.90;;;;;;5033899;28;20033;-73
2022/09/23 11:59:40;;;;;;;4.57;1.23;;;28.20;99.90;;;;;;5032332;28;20040;-75
2022/09/23 12:02:38;;;;;;;4.97;1.30;;;28.20;99.90;;;;;;5033485;28;20034;-75
2022/09/23 12:05:08;;;;;;;4.43;1.27;;;28.20;99.90;;;;;;5032909;28;20030;-74
2022/09/23 12:07:52;;;;;;;3.60;1.30;;;28.40;99.90;;;;;;5033580;28;20540;-74
2022/09/23 12:10:20;;;;;;;4.63;1.20;;;28.30;99.90;;;;;;5031826;28;20459;-75
2022/09/23 12:13:20;;;;;;;6.97;3.40;;;28.00;99.90;;;;;;5033048;28;20029;-74
2022/09/23 12:16:23;;;;;;;3.38;1.52;;;27.90;99.90;;;;;;5031547;28;20050;-75
2022/09/23 12:19:03;;;;;;;4.00;1.20;;;27.80;99.90;;;;;;5033852;28;20025;-74
2022/09/23 12:21:32;;;;;;;3.20;1.13;;;28.00;99.90;;;;;;5033395;28;20033;-74
2022/09/23 12:24:19;;;;;;;4.57;1.40;;;28.00;99.90;;;;;;5033548;28;20417;-73
2022/09/23 12:26:52;;;;;;;3.28;1.02;;;28.00;99.90;;;;;;5033491;28;20162;-75
2022/09/23 12:29:18;;;;;;;3.92;1.30;;;27.80;99.90;;;;;;5032996;28;20045;-74
2022/09/23 12:31:45;;;;;;;4.35;1.10;;;27.70;99.90;;;;;;5033185;28;20108;-75
2022/09/23 12:34:40;;;;;;;6.22;1.10;;;27.80;99.90;;;;;;5032275;28;20048;-74
2022/09/23 12:37:06;;;;;;;3.97;1.15;;;28.00;99.90;;;;;;5033399;28;20025;-74
2022/09/23 12:39:36;;;;;;;3.30;1.05;;;27.90;99.90;;;;;;5033115;28;20025;-74
2022/09/23 12:42:14;;;;;;;4.07;1.00;;;28.00;99.90;;;;;;5033126;28;20025;-73
2022/09/23 12:44:44;;;;;;;2.40;1.17;;;28.00;99.90;;;;;;5033158;28;20065;-73
2022/09/23 12:47:23;;;;;;;2.83;1.10;;;28.10;99.90;;;;;;5032851;28;20112;-73
2022/09/23 12:49:53;;;;;;;4.57;1.10;;;28.00;99.90;;;;;;5033059;28;20109;-74
2022/09/23 12:52:24;;;;;;;3.25;1.10;;;27.90;99.90;;;;;;5032027;28;20028;-73
2022/09/23 12:54:55;;;;;;;2.53;1.17;;;27.90;99.90;;;;;;5032665;28;20548;-73
2022/09/23 12:57:33;;;;;;;4.55;1.10;;;27.80;99.90;;;;;;5032387;28;20052;-74
2022/09/23 13:00:10;;;;;;;3.85;1.67;;;27.70;99.90;;;;;;5032650;28;20029;-74
2022/09/23 13:08:30;;;;;;;2.88;1.10;;;27.80;99.90;;;;;;5032799;28;20044;-74
2022/09/23 13:11:01;;;;;;;4.13;1.10;;;27.40;99.90;;;;;;5031321;28;20443;-74
2022/09/23 13:13:39;;;;;;;5.55;1.25;;;27.40;99.90;;;;;;5032354;28;20520;-74
2022/09/23 13:16:20;;;;;;;3.28;1.08;;;27.30;99.90;;;;;;5032536;28;20083;-74
2022/09/23 13:18:55;;;;;;;5.03;1.10;;;27.30;99.90;;;;;;5033045;28;20022;-75
2022/09/23 13:21:45;;;;;;;2.88;1.20;;;27.50;99.90;;;;;;5032415;28;20080;-74
2022/09/23 13:24:25;;;;;;;4.07;1.00;;;27.60;99.90;;;;;;5032295;28;20049;-74
2022/09/23 13:27:09;;;;;;;5.72;1.50;;;27.70;99.90;;;;;;5032495;28;20034;-75
2022/09/23 13:29:55;;;;;;;4.57;1.20;;;27.70;99.90;;;;;;5032792;28;20417;-75
2022/09/23 13:32:26;;;;;;;3.05;1.10;;;27.90;99.90;;;;;;5030977;28;20056;-74
2022/09/23 13:35:02;;;;;;;5.55;0.98;;;27.90;99.90;;;;;;5032793;28;20056;-75
2022/09/23 13:37:39;;;;;;;4.97;1.20;;;27.70;99.90;;;;;;5033005;28;20026;-74